sensor_id;sensor_type;location;lat;lon;timestamp;P1;durP1;ratioP1;P2;durP2;ratioP2
68947;SDS011;55996;49.546;7.400;2023-06-10T00:01:09;8.90;;;8.07;;
68947;SDS011;55996;49.546;7.400;2023-06-10T00:03:35;8.40;;;7.57;;
68947;SDS011;55996;49.546;7.400;2023-06-10T00:06:01;9.30;;;7.70;;
68947;SDS011;55996;49.546;7.400;2023-06-10T00:08:26;8.03;;;7.30;;
68947;SDS011;55996;49.546;7.400;2023-06-10T00:10:54;8.40;;;7.60;;
68947;SDS011;55996;49.546;7.400;2023-06-10T00:13:19;8.57;;;7.67;;
68947;SDS011;55996;49.546;7.400;2023-06-10T00:15:45;10.43;;;7.83;;
68947;SDS011;55996;49.546;7.400;2023-06-10T00:18:10;7.67;;;7.07;;
68947;SDS011;55996;49.546;7.400;2023-06-10T00:20:36;8.90;;;8.00;;
68947;SDS011;55996;49.546;7.400;2023-06-10T00:23:02;8.70;;;7.70;;
68947;SDS011;55996;49.546;7.400;2023-06-10T00:25:28;9.33;;;7.97;;
68947;SDS011;55996;49.546;7.400;2023-06-10T00:27:53;8.93;;;8.03;;
68947;SDS011;55996;49.546;7.400;2023-06-10T00:30:20;8.73;;;7.93;;
68947;SDS011;55996;49.546;7.400;2023-06-10T00:32:46;8.80;;;7.57;;
68947;SDS011;55996;49.546;7.400;2023-06-10T00:35:11;9.13;;;8.23;;
68947;SDS011;55996;49.546;7.400;2023-06-10T00:37:37;8.53;;;7.73;;
68947;SDS011;55996;49.546;7.400;2023-06-10T00:40:03;9.03;;;7.77;;
68947;SDS011;55996;49.546;7.400;2023-06-10T00:42:29;8.73;;;7.97;;
68947;SDS011;55996;49.546;7.400;2023-06-10T00:44:55;8.20;;;7.50;;
68947;SDS011;55996;49.546;7.400;2023-06-10T00:47:20;8.70;;;7.80;;
68947;SDS011;55996;49.546;7.400;2023-06-10T00:49:47;9.27;;;7.80;;
68947;SDS011;55996;49.546;7.400;2023-06-10T00:52:13;9.03;;;8.07;;
68947;SDS011;55996;49.546;7.400;2023-06-10T00:54:41;8.77;;;7.23;;
68947;SDS011;55996;49.546;7.400;2023-06-10T00:57:07;8.40;;;7.50;;
68947;SDS011;55996;49.546;7.400;2023-06-10T00:59:33;8.60;;;7.70;;
68947;SDS011;55996;49.546;7.400;2023-06-10T01:01:59;10.23;;;8.30;;
68947;SDS011;55996;49.546;7.400;2023-06-10T01:04:25;9.97;;;8.97;;
68947;SDS011;55996;49.546;7.400;2023-06-10T01:06:56;9.07;;;8.23;;
68947;SDS011;55996;49.546;7.400;2023-06-10T01:14:49;9.33;;;8.33;;
68947;SDS011;55996;49.546;7.400;2023-06-10T01:17:16;9.10;;;8.30;;
68947;SDS011;55996;49.546;7.400;2023-06-10T01:19:43;8.80;;;7.97;;
68947;SDS011;55996;49.546;7.400;2023-06-10T01:22:09;10.43;;;8.37;;
68947;SDS011;55996;49.546;7.400;2023-06-10T01:24:35;9.10;;;8.20;;
68947;SDS011;55996;49.546;7.400;2023-06-10T01:27:03;9.17;;;8.33;;
68947;SDS011;55996;49.546;7.400;2023-06-10T01:29:36;9.33;;;8.53;;
68947;SDS011;55996;49.546;7.400;2023-06-10T01:32:06;9.30;;;8.30;;
68947;SDS011;55996;49.546;7.400;2023-06-10T01:34:37;9.40;;;8.60;;
68947;SDS011;55996;49.546;7.400;2023-06-10T01:37:04;9.00;;;8.20;;
68947;SDS011;55996;49.546;7.400;2023-06-10T01:39:30;8.97;;;8.17;;
68947;SDS011;55996;49.546;7.400;2023-06-10T01:41:57;9.50;;;8.60;;
68947;SDS011;55996;49.546;7.400;2023-06-10T01:44:23;9.57;;;8.57;;
68947;SDS011;55996;49.546;7.400;2023-06-10T01:46:48;9.53;;;8.73;;
68947;SDS011;55996;49.546;7.400;2023-06-10T01:49:14;9.13;;;8.33;;
68947;SDS011;55996;49.546;7.400;2023-06-10T01:51:40;8.77;;;7.97;;
68947;SDS011;55996;49.546;7.400;2023-06-10T01:54:05;9.00;;;8.20;;
68947;SDS011;55996;49.546;7.400;2023-06-10T01:56:31;9.50;;;8.07;;
68947;SDS011;55996;49.546;7.400;2023-06-10T01:58:57;10.30;;;8.23;;
68947;SDS011;55996;49.546;7.400;2023-06-10T02:01:27;9.30;;;8.40;;
68947;SDS011;55996;49.546;7.400;2023-06-10T02:03:53;9.17;;;8.20;;
68947;SDS011;55996;49.546;7.400;2023-06-10T02:06:19;9.67;;;8.83;;
68947;SDS011;55996;49.546;7.400;2023-06-10T02:08:44;9.83;;;8.93;;
68947;SDS011;55996;49.546;7.400;2023-06-10T02:11:10;9.60;;;8.60;;
68947;SDS011;55996;49.546;7.400;2023-06-10T02:13:35;9.37;;;8.47;;
68947;SDS011;55996;49.546;7.400;2023-06-10T02:16:00;9.60;;;8.70;;
68947;SDS011;55996;49.546;7.400;2023-06-10T02:18:26;9.13;;;8.20;;
68947;SDS011;55996;49.546;7.400;2023-06-10T02:20:53;9.90;;;9.00;;
68947;SDS011;55996;49.546;7.400;2023-06-10T02:23:19;9.57;;;8.07;;
68947;SDS011;55996;49.546;7.400;2023-06-10T02:25:44;9.87;;;8.97;;
68947;SDS011;55996;49.546;7.400;2023-06-10T02:28:10;9.30;;;8.43;;
68947;SDS011;55996;49.546;7.400;2023-06-10T02:30:36;11.37;;;8.80;;
68947;SDS011;55996;49.546;7.400;2023-06-10T02:33:07;10.47;;;8.97;;
68947;SDS011;55996;49.546;7.400;2023-06-10T02:35:35;10.20;;;9.27;;
68947;SDS011;55996;49.546;7.400;2023-06-10T02:38:01;9.70;;;8.90;;
68947;SDS011;55996;49.546;7.400;2023-06-10T02:40:27;11.13;;;8.87;;
68947;SDS011;55996;49.546;7.400;2023-06-10T02:42:53;10.80;;;9.73;;
68947;SDS011;55996;49.546;7.400;2023-06-10T02:45:18;10.03;;;9.13;;
68947;SDS011;55996;49.546;7.400;2023-06-10T02:47:44;9.60;;;8.60;;
68947;SDS011;55996;49.546;7.400;2023-06-10T02:50:09;9.93;;;8.93;;
68947;SDS011;55996;49.546;7.400;2023-06-10T02:52:35;10.27;;;9.27;;
68947;SDS011;55996;49.546;7.400;2023-06-10T02:55:00;11.37;;;9.00;;
68947;SDS011;55996;49.546;7.400;2023-06-10T02:57:26;9.33;;;8.43;;
68947;SDS011;55996;49.546;7.400;2023-06-10T02:59:51;10.90;;;9.57;;
68947;SDS011;55996;49.546;7.400;2023-06-10T03:02:18;9.40;;;8.60;;
68947;SDS011;55996;49.546;7.400;2023-06-10T03:04:44;10.40;;;8.80;;
68947;SDS011;55996;49.546;7.400;2023-06-10T03:07:10;10.27;;;9.10;;
68947;SDS011;55996;49.546;7.400;2023-06-10T03:09:36;9.43;;;8.63;;
68947;SDS011;55996;49.546;7.400;2023-06-10T03:12:02;10.10;;;9.17;;
68947;SDS011;55996;49.546;7.400;2023-06-10T03:14:27;11.30;;;9.63;;
68947;SDS011;55996;49.546;7.400;2023-06-10T03:16:56;10.63;;;9.63;;
68947;SDS011;55996;49.546;7.400;2023-06-10T03:19:25;10.83;;;9.73;;
68947;SDS011;55996;49.546;7.400;2023-06-10T03:22:07;11.03;;;9.73;;
68947;SDS011;55996;49.546;7.400;2023-06-10T03:24:37;10.20;;;9.17;;
68947;SDS011;55996;49.546;7.400;2023-06-10T03:27:06;10.43;;;9.30;;
68947;SDS011;55996;49.546;7.400;2023-06-10T03:29:32;10.33;;;9.27;;
68947;SDS011;55996;49.546;7.400;2023-06-10T03:31:58;10.70;;;9.63;;
68947;SDS011;55996;49.546;7.400;2023-06-10T03:34:23;12.57;;;9.90;;
68947;SDS011;55996;49.546;7.400;2023-06-10T03:36:49;10.87;;;9.87;;
68947;SDS011;55996;49.546;7.400;2023-06-10T03:39:18;11.53;;;10.43;;
68947;SDS011;55996;49.546;7.400;2023-06-10T03:41:43;12.07;;;10.17;;
68947;SDS011;55996;49.546;7.400;2023-06-10T03:44:08;10.30;;;9.23;;
68947;SDS011;55996;49.546;7.400;2023-06-10T03:46:34;10.47;;;9.40;;
68947;SDS011;55996;49.546;7.400;2023-06-10T03:48:59;10.97;;;9.97;;
68947;SDS011;55996;49.546;7.400;2023-06-10T03:51:28;13.93;;;9.83;;
68947;SDS011;55996;49.546;7.400;2023-06-10T03:53:54;10.43;;;9.53;;
68947;SDS011;55996;49.546;7.400;2023-06-10T03:56:20;10.80;;;9.70;;
68947;SDS011;55996;49.546;7.400;2023-06-10T03:58:45;10.50;;;9.53;;
68947;SDS011;55996;49.546;7.400;2023-06-10T04:01:11;10.13;;;9.23;;
68947;SDS011;55996;49.546;7.400;2023-06-10T04:03:38;11.43;;;10.23;;
68947;SDS011;55996;49.546;7.400;2023-06-10T04:06:04;10.47;;;9.57;;
68947;SDS011;55996;49.546;7.400;2023-06-10T04:08:30;11.53;;;10.43;;
68947;SDS011;55996;49.546;7.400;2023-06-10T04:10:56;10.77;;;9.73;;
68947;SDS011;55996;49.546;7.400;2023-06-10T04:13:22;11.37;;;10.17;;
68947;SDS011;55996;49.546;7.400;2023-06-10T04:15:48;10.33;;;9.43;;
68947;SDS011;55996;49.546;7.400;2023-06-10T04:18:13;11.00;;;10.10;;
68947;SDS011;55996;49.546;7.400;2023-06-10T04:20:39;11.03;;;9.93;;
68947;SDS011;55996;49.546;7.400;2023-06-10T04:23:05;11.07;;;9.47;;
68947;SDS011;55996;49.546;7.400;2023-06-10T04:25:31;10.97;;;9.87;;
68947;SDS011;55996;49.546;7.400;2023-06-10T04:27:56;10.43;;;9.53;;
68947;SDS011;55996;49.546;7.400;2023-06-10T04:30:24;10.80;;;9.70;;
68947;SDS011;55996;49.546;7.400;2023-06-10T04:32:50;9.87;;;8.97;;
68947;SDS011;55996;49.546;7.400;2023-06-10T04:35:15;11.00;;;9.90;;
68947;SDS011;55996;49.546;7.400;2023-06-10T04:37:41;11.43;;;10.43;;
68947;SDS011;55996;49.546;7.400;2023-06-10T04:40:07;10.50;;;9.33;;
68947;SDS011;55996;49.546;7.400;2023-06-10T04:42:33;11.70;;;9.83;;
68947;SDS011;55996;49.546;7.400;2023-06-10T04:44:59;11.57;;;10.27;;
68947;SDS011;55996;49.546;7.400;2023-06-10T04:47:25;11.23;;;10.13;;
68947;SDS011;55996;49.546;7.400;2023-06-10T04:49:51;11.47;;;10.27;;
68947;SDS011;55996;49.546;7.400;2023-06-10T04:52:17;10.90;;;9.67;;
68947;SDS011;55996;49.546;7.400;2023-06-10T04:54:42;11.43;;;10.33;;
68947;SDS011;55996;49.546;7.400;2023-06-10T04:57:08;10.80;;;9.80;;
68947;SDS011;55996;49.546;7.400;2023-06-10T04:59:33;10.60;;;9.60;;
68947;SDS011;55996;49.546;7.400;2023-06-10T05:02:02;10.47;;;9.57;;
68947;SDS011;55996;49.546;7.400;2023-06-10T05:04:29;10.67;;;9.77;;
68947;SDS011;55996;49.546;7.400;2023-06-10T05:06:55;11.33;;;10.13;;
68947;SDS011;55996;49.546;7.400;2023-06-10T05:09:20;11.37;;;10.20;;
68947;SDS011;55996;49.546;7.400;2023-06-10T05:11:46;10.67;;;9.67;;
68947;SDS011;55996;49.546;7.400;2023-06-10T05:14:11;11.27;;;10.20;;
68947;SDS011;55996;49.546;7.400;2023-06-10T05:16:37;11.07;;;9.97;;
68947;SDS011;55996;49.546;7.400;2023-06-10T05:19:03;10.77;;;9.67;;
68947;SDS011;55996;49.546;7.400;2023-06-10T05:21:29;11.20;;;10.10;;
68947;SDS011;55996;49.546;7.400;2023-06-10T05:23:55;14.47;;;10.13;;
68947;SDS011;55996;49.546;7.400;2023-06-10T05:26:20;12.60;;;11.07;;
68947;SDS011;55996;49.546;7.400;2023-06-10T05:28:46;10.27;;;9.27;;
68947;SDS011;55996;49.546;7.400;2023-06-10T05:31:12;10.17;;;9.17;;
68947;SDS011;55996;49.546;7.400;2023-06-10T05:33:37;11.13;;;8.27;;
68947;SDS011;55996;49.546;7.400;2023-06-10T05:36:03;10.60;;;8.77;;
68947;SDS011;55996;49.546;7.400;2023-06-10T05:38:28;9.83;;;8.67;;
68947;SDS011;55996;49.546;7.400;2023-06-10T05:40:54;8.87;;;7.97;;
68947;SDS011;55996;49.546;7.400;2023-06-10T05:43:21;10.10;;;9.00;;
68947;SDS011;55996;49.546;7.400;2023-06-10T05:45:47;10.27;;;8.90;;
68947;SDS011;55996;49.546;7.400;2023-06-10T05:48:12;10.90;;;8.30;;
68947;SDS011;55996;49.546;7.400;2023-06-10T05:50:38;9.63;;;8.47;;
68947;SDS011;55996;49.546;7.400;2023-06-10T05:53:07;9.43;;;8.40;;
68947;SDS011;55996;49.546;7.400;2023-06-10T05:55:39;8.97;;;8.10;;
68947;SDS011;55996;49.546;7.400;2023-06-10T05:58:08;11.23;;;8.20;;
68947;SDS011;55996;49.546;7.400;2023-06-10T06:00:34;12.63;;;8.67;;
68947;SDS011;55996;49.546;7.400;2023-06-10T06:02:59;9.27;;;7.83;;
68947;SDS011;55996;49.546;7.400;2023-06-10T06:05:24;10.17;;;8.33;;
68947;SDS011;55996;49.546;7.400;2023-06-10T06:07:50;11.80;;;8.00;;
68947;SDS011;55996;49.546;7.400;2023-06-10T06:10:16;11.10;;;7.97;;
68947;SDS011;55996;49.546;7.400;2023-06-10T06:12:42;13.37;;;8.70;;
68947;SDS011;55996;49.546;7.400;2023-06-10T06:15:08;26.27;;;12.30;;
68947;SDS011;55996;49.546;7.400;2023-06-10T06:17:35;11.30;;;9.20;;
68947;SDS011;55996;49.546;7.400;2023-06-10T06:20:01;18.17;;;9.67;;
68947;SDS011;55996;49.546;7.400;2023-06-10T06:22:29;13.17;;;8.27;;
68947;SDS011;55996;49.546;7.400;2023-06-10T06:24:55;14.03;;;9.10;;
68947;SDS011;55996;49.546;7.400;2023-06-10T06:27:20;19.70;;;10.70;;
68947;SDS011;55996;49.546;7.400;2023-06-10T06:29:46;8.93;;;7.57;;
68947;SDS011;55996;49.546;7.400;2023-06-10T06:32:11;22.03;;;9.70;;
68947;SDS011;55996;49.546;7.400;2023-06-10T06:34:37;10.17;;;8.17;;
68947;SDS011;55996;49.546;7.400;2023-06-10T06:37:02;9.17;;;7.83;;
68947;SDS011;55996;49.546;7.400;2023-06-10T06:39:29;8.38;;;7.47;;
68947;SDS011;55996;49.546;7.400;2023-06-10T06:41:55;8.48;;;7.50;;
68947;SDS011;55996;49.546;7.400;2023-06-10T06:44:20;8.95;;;7.43;;
68947;SDS011;55996;49.546;7.400;2023-06-10T06:46:45;9.38;;;7.38;;
68947;SDS011;55996;49.546;7.400;2023-06-10T06:49:11;8.32;;;7.35;;
68947;SDS011;55996;49.546;7.400;2023-06-10T06:51:36;12.00;;;6.53;;
68947;SDS011;55996;49.546;7.400;2023-06-10T06:54:02;10.95;;;7.25;;
68947;SDS011;55996;49.546;7.400;2023-06-10T06:56:27;11.57;;;7.07;;
68947;SDS011;55996;49.546;7.400;2023-06-10T06:58:53;7.88;;;7.07;;
68947;SDS011;55996;49.546;7.400;2023-06-10T07:01:18;8.00;;;7.20;;
68947;SDS011;55996;49.546;7.400;2023-06-10T07:03:44;8.25;;;7.20;;
68947;SDS011;55996;49.546;7.400;2023-06-10T07:06:09;7.47;;;6.78;;
68947;SDS011;55996;49.546;7.400;2023-06-10T07:08:35;8.18;;;7.22;;
68947;SDS011;55996;49.546;7.400;2023-06-10T07:11:00;8.45;;;6.43;;
68947;SDS011;55996;49.546;7.400;2023-06-10T07:13:26;7.78;;;6.40;;
68947;SDS011;55996;49.546;7.400;2023-06-10T07:15:51;8.10;;;6.30;;
68947;SDS011;55996;49.546;7.400;2023-06-10T07:18:17;7.65;;;6.85;;
68947;SDS011;55996;49.546;7.400;2023-06-10T07:20:42;8.32;;;6.70;;
68947;SDS011;55996;49.546;7.400;2023-06-10T07:23:08;9.57;;;6.90;;
68947;SDS011;55996;49.546;7.400;2023-06-10T07:25:33;18.77;;;8.10;;
68947;SDS011;55996;49.546;7.400;2023-06-10T07:27:58;8.02;;;6.60;;
68947;SDS011;55996;49.546;7.400;2023-06-10T07:30:24;20.27;;;8.60;;
68947;SDS011;55996;49.546;7.400;2023-06-10T07:32:50;11.60;;;7.18;;
68947;SDS011;55996;49.546;7.400;2023-06-10T07:35:16;10.70;;;7.63;;
68947;SDS011;55996;49.546;7.400;2023-06-10T07:37:42;11.73;;;7.68;;
68947;SDS011;55996;49.546;7.400;2023-06-10T07:40:08;7.13;;;6.43;;
68947;SDS011;55996;49.546;7.400;2023-06-10T07:42:37;8.95;;;6.80;;
68947;SDS011;55996;49.546;7.400;2023-06-10T07:45:03;9.05;;;7.35;;
68947;SDS011;55996;49.546;7.400;2023-06-10T07:47:29;11.38;;;7.53;;
68947;SDS011;55996;49.546;7.400;2023-06-10T07:49:55;6.95;;;6.25;;
68947;SDS011;55996;49.546;7.400;2023-06-10T07:52:20;9.20;;;6.72;;
68947;SDS011;55996;49.546;7.400;2023-06-10T07:54:46;7.13;;;6.13;;
68947;SDS011;55996;49.546;7.400;2023-06-10T07:57:11;6.63;;;5.97;;
68947;SDS011;55996;49.546;7.400;2023-06-10T07:59:37;11.30;;;6.22;;
68947;SDS011;55996;49.546;7.400;2023-06-10T08:02:03;6.80;;;6.00;;
68947;SDS011;55996;49.546;7.400;2023-06-10T08:04:29;7.15;;;5.90;;
68947;SDS011;55996;49.546;7.400;2023-06-10T08:06:56;6.93;;;5.75;;
68947;SDS011;55996;49.546;7.400;2023-06-10T08:09:21;15.73;;;6.63;;
68947;SDS011;55996;49.546;7.400;2023-06-10T08:11:48;7.75;;;5.85;;
68947;SDS011;55996;49.546;7.400;2023-06-10T08:14:14;6.60;;;5.85;;
68947;SDS011;55996;49.546;7.400;2023-06-10T08:16:40;6.65;;;5.95;;
68947;SDS011;55996;49.546;7.400;2023-06-10T08:19:05;5.80;;;5.30;;
68947;SDS011;55996;49.546;7.400;2023-06-10T08:21:30;6.70;;;5.50;;
68947;SDS011;55996;49.546;7.400;2023-06-10T08:23:56;6.68;;;6.07;;
68947;SDS011;55996;49.546;7.400;2023-06-10T08:26:22;7.75;;;6.22;;
68947;SDS011;55996;49.546;7.400;2023-06-10T08:28:47;6.82;;;6.20;;
68947;SDS011;55996;49.546;7.400;2023-06-10T08:31:13;6.80;;;6.10;;
68947;SDS011;55996;49.546;7.400;2023-06-10T08:33:38;7.25;;;5.72;;
68947;SDS011;55996;49.546;7.400;2023-06-10T08:36:04;6.35;;;5.75;;
68947;SDS011;55996;49.546;7.400;2023-06-10T08:38:29;6.28;;;5.68;;
68947;SDS011;55996;49.546;7.400;2023-06-10T08:40:59;7.75;;;5.43;;
68947;SDS011;55996;49.546;7.400;2023-06-10T08:43:32;5.97;;;5.38;;
68947;SDS011;55996;49.546;7.400;2023-06-10T08:46:01;7.35;;;5.22;;
68947;SDS011;55996;49.546;7.400;2023-06-10T08:48:30;5.75;;;5.15;;
68947;SDS011;55996;49.546;7.400;2023-06-10T08:51:01;5.40;;;5.00;;
68947;SDS011;55996;49.546;7.400;2023-06-10T08:53:29;5.43;;;5.03;;
68947;SDS011;55996;49.546;7.400;2023-06-10T08:55:59;5.65;;;5.00;;
68947;SDS011;55996;49.546;7.400;2023-06-10T08:58:27;5.97;;;5.03;;
68947;SDS011;55996;49.546;7.400;2023-06-10T09:00:53;5.53;;;5.00;;
68947;SDS011;55996;49.546;7.400;2023-06-10T09:03:19;6.18;;;4.97;;
68947;SDS011;55996;49.546;7.400;2023-06-10T09:05:46;5.93;;;5.32;;
68947;SDS011;55996;49.546;7.400;2023-06-10T09:08:13;5.70;;;5.20;;
68947;SDS011;55996;49.546;7.400;2023-06-10T09:10:57;26.15;;;7.00;;
68947;SDS011;55996;49.546;7.400;2023-06-10T09:13:22;6.30;;;5.70;;
68947;SDS011;55996;49.546;7.400;2023-06-10T09:15:48;6.30;;;5.70;;
68947;SDS011;55996;49.546;7.400;2023-06-10T09:18:14;5.60;;;5.10;;
68947;SDS011;55996;49.546;7.400;2023-06-10T09:20:41;5.50;;;4.78;;
68947;SDS011;55996;49.546;7.400;2023-06-10T09:23:06;6.05;;;5.45;;
68947;SDS011;55996;49.546;7.400;2023-06-10T09:25:36;5.55;;;5.05;;
68947;SDS011;55996;49.546;7.400;2023-06-10T09:28:02;8.48;;;5.00;;
68947;SDS011;55996;49.546;7.400;2023-06-10T09:30:33;5.63;;;5.10;;
68947;SDS011;55996;49.546;7.400;2023-06-10T09:33:03;5.70;;;5.20;;
68947;SDS011;55996;49.546;7.400;2023-06-10T09:35:35;5.45;;;4.97;;
68947;SDS011;55996;49.546;7.400;2023-06-10T09:38:01;5.80;;;5.20;;
68947;SDS011;55996;49.546;7.400;2023-06-10T09:40:27;5.72;;;4.63;;
68947;SDS011;55996;49.546;7.400;2023-06-10T09:42:54;6.32;;;5.78;;
68947;SDS011;55996;49.546;7.400;2023-06-10T09:45:25;12.50;;;4.88;;
68947;SDS011;55996;49.546;7.400;2023-06-10T09:47:54;5.45;;;4.93;;
68947;SDS011;55996;49.546;7.400;2023-06-10T09:50:20;31.15;;;7.35;;
68947;SDS011;55996;49.546;7.400;2023-06-10T09:52:46;5.85;;;4.65;;
68947;SDS011;55996;49.546;7.400;2023-06-10T09:55:15;7.82;;;5.28;;
68947;SDS011;55996;49.546;7.400;2023-06-10T09:57:42;5.25;;;4.80;;
68947;SDS011;55996;49.546;7.400;2023-06-10T10:00:09;6.00;;;4.80;;
68947;SDS011;55996;49.546;7.400;2023-06-10T10:02:50;6.65;;;5.20;;
68947;SDS011;55996;49.546;7.400;2023-06-10T10:05:18;4.60;;;4.20;;
68947;SDS011;55996;49.546;7.400;2023-06-10T10:07:47;20.77;;;5.95;;
68947;SDS011;55996;49.546;7.400;2023-06-10T10:10:16;6.50;;;4.25;;
68947;SDS011;55996;49.546;7.400;2023-06-10T10:12:43;4.78;;;4.20;;
68947;SDS011;55996;49.546;7.400;2023-06-10T10:15:11;4.75;;;4.03;;
68947;SDS011;55996;49.546;7.400;2023-06-10T10:17:38;8.73;;;4.50;;
68947;SDS011;55996;49.546;7.400;2023-06-10T10:20:08;7.15;;;4.15;;
68947;SDS011;55996;49.546;7.400;2023-06-10T10:22:38;4.88;;;4.43;;
68947;SDS011;55996;49.546;7.400;2023-06-10T10:25:08;5.63;;;4.20;;
68947;SDS011;55996;49.546;7.400;2023-06-10T10:27:38;5.07;;;4.55;;
68947;SDS011;55996;49.546;7.400;2023-06-10T10:30:06;5.25;;;4.43;;
68947;SDS011;55996;49.546;7.400;2023-06-10T10:32:38;4.47;;;4.07;;
68947;SDS011;55996;49.546;7.400;2023-06-10T10:35:08;5.43;;;4.40;;
68947;SDS011;55996;49.546;7.400;2023-06-10T10:37:37;5.13;;;4.63;;
68947;SDS011;55996;49.546;7.400;2023-06-10T10:40:03;6.80;;;4.68;;
68947;SDS011;55996;49.546;7.400;2023-06-10T10:42:30;5.00;;;4.50;;
68947;SDS011;55996;49.546;7.400;2023-06-10T10:44:57;5.50;;;4.60;;
68947;SDS011;55996;49.546;7.400;2023-06-10T10:47:23;4.40;;;4.07;;
68947;SDS011;55996;49.546;7.400;2023-06-10T10:49:54;5.53;;;4.10;;
68947;SDS011;55996;49.546;7.400;2023-06-10T10:52:23;6.45;;;4.47;;
68947;SDS011;55996;49.546;7.400;2023-06-10T10:54:52;4.20;;;3.80;;
68947;SDS011;55996;49.546;7.400;2023-06-10T10:57:19;5.68;;;4.00;;
68947;SDS011;55996;49.546;7.400;2023-06-10T11:02:35;7.40;;;4.75;;
68947;SDS011;55996;49.546;7.400;2023-06-10T11:05:03;5.75;;;3.90;;
68947;SDS011;55996;49.546;7.400;2023-06-10T11:07:30;4.30;;;3.90;;
68947;SDS011;55996;49.546;7.400;2023-06-10T11:09:57;4.32;;;4.03;;
68947;SDS011;55996;49.546;7.400;2023-06-10T11:15:10;4.57;;;4.18;;
68947;SDS011;55996;49.546;7.400;2023-06-10T11:17:36;6.13;;;4.20;;
68947;SDS011;55996;49.546;7.400;2023-06-10T11:20:02;6.53;;;4.68;;
68947;SDS011;55996;49.546;7.400;2023-06-10T11:22:27;4.70;;;4.30;;
68947;SDS011;55996;49.546;7.400;2023-06-10T11:24:53;4.95;;;4.53;;
68947;SDS011;55996;49.546;7.400;2023-06-10T11:27:19;5.68;;;4.50;;
68947;SDS011;55996;49.546;7.400;2023-06-10T11:32:34;9.98;;;4.60;;
68947;SDS011;55996;49.546;7.400;2023-06-10T11:35:02;5.25;;;4.25;;
68947;SDS011;55996;49.546;7.400;2023-06-10T11:37:29;6.75;;;4.15;;
68947;SDS011;55996;49.546;7.400;2023-06-10T11:39:55;27.75;;;6.95;;
68947;SDS011;55996;49.546;7.400;2023-06-10T11:42:21;4.82;;;3.72;;
68947;SDS011;55996;49.546;7.400;2023-06-10T11:44:51;4.22;;;3.83;;
68947;SDS011;55996;49.546;7.400;2023-06-10T11:47:18;4.35;;;3.95;;
68947;SDS011;55996;49.546;7.400;2023-06-10T11:49:45;5.10;;;4.20;;
68947;SDS011;55996;49.546;7.400;2023-06-10T11:52:11;4.15;;;3.70;;
68947;SDS011;55996;49.546;7.400;2023-06-10T11:54:37;4.20;;;3.78;;
68947;SDS011;55996;49.546;7.400;2023-06-10T11:57:03;9.90;;;4.35;;
68947;SDS011;55996;49.546;7.400;2023-06-10T11:59:29;5.75;;;3.70;;
68947;SDS011;55996;49.546;7.400;2023-06-10T12:01:55;4.53;;;4.00;;
68947;SDS011;55996;49.546;7.400;2023-06-10T12:04:21;6.53;;;4.18;;
68947;SDS011;55996;49.546;7.400;2023-06-10T12:06:51;5.07;;;4.28;;
68947;SDS011;55996;49.546;7.400;2023-06-10T12:11:48;4.53;;;4.13;;
68947;SDS011;55996;49.546;7.400;2023-06-10T12:19:49;5.38;;;4.25;;
68947;SDS011;55996;49.546;7.400;2023-06-10T12:22:16;5.13;;;4.63;;
68947;SDS011;55996;49.546;7.400;2023-06-10T12:25:01;6.03;;;4.38;;
68947;SDS011;55996;49.546;7.400;2023-06-10T12:27:29;8.88;;;4.57;;
68947;SDS011;55996;49.546;7.400;2023-06-10T12:29:56;8.25;;;4.38;;
68947;SDS011;55996;49.546;7.400;2023-06-10T12:32:37;5.03;;;3.97;;
68947;SDS011;55996;49.546;7.400;2023-06-10T12:35:07;6.18;;;4.43;;
68947;SDS011;55996;49.546;7.400;2023-06-10T12:37:34;4.70;;;4.30;;
68947;SDS011;55996;49.546;7.400;2023-06-10T12:40:03;6.97;;;4.60;;
68947;SDS011;55996;49.546;7.400;2023-06-10T12:42:36;6.10;;;5.20;;
68947;SDS011;55996;49.546;7.400;2023-06-10T12:45:02;5.30;;;4.80;;
68947;SDS011;55996;49.546;7.400;2023-06-10T12:47:32;5.32;;;4.60;;
68947;SDS011;55996;49.546;7.400;2023-06-10T12:50:01;4.65;;;4.00;;
68947;SDS011;55996;49.546;7.400;2023-06-10T12:52:26;6.85;;;4.53;;
68947;SDS011;55996;49.546;7.400;2023-06-10T12:54:52;7.35;;;4.53;;
68947;SDS011;55996;49.546;7.400;2023-06-10T12:57:19;5.13;;;4.55;;
68947;SDS011;55996;49.546;7.400;2023-06-10T12:59:45;5.50;;;5.00;;
68947;SDS011;55996;49.546;7.400;2023-06-10T13:02:15;7.70;;;5.10;;
68947;SDS011;55996;49.546;7.400;2023-06-10T13:04:43;6.05;;;5.47;;
68947;SDS011;55996;49.546;7.400;2023-06-10T13:07:09;6.13;;;5.20;;
68947;SDS011;55996;49.546;7.400;2023-06-10T13:09:35;25.45;;;6.70;;
68947;SDS011;55996;49.546;7.400;2023-06-10T13:12:01;5.10;;;4.70;;
68947;SDS011;55996;49.546;7.400;2023-06-10T13:14:27;5.80;;;5.28;;
68947;SDS011;55996;49.546;7.400;2023-06-10T13:16:53;7.97;;;5.57;;
68947;SDS011;55996;49.546;7.400;2023-06-10T13:19:20;5.50;;;5.00;;
68947;SDS011;55996;49.546;7.400;2023-06-10T13:21:46;6.95;;;4.75;;
68947;SDS011;55996;49.546;7.400;2023-06-10T13:24:12;5.43;;;5.00;;
68947;SDS011;55996;49.546;7.400;2023-06-10T13:26:38;5.25;;;4.75;;
68947;SDS011;55996;49.546;7.400;2023-06-10T13:29:03;5.38;;;4.88;;
68947;SDS011;55996;49.546;7.400;2023-06-10T13:31:29;5.53;;;4.95;;
68947;SDS011;55996;49.546;7.400;2023-06-10T13:33:54;6.82;;;4.90;;
68947;SDS011;55996;49.546;7.400;2023-06-10T13:36:20;5.05;;;4.65;;
68947;SDS011;55996;49.546;7.400;2023-06-10T13:38:45;8.30;;;4.95;;
68947;SDS011;55996;49.546;7.400;2023-06-10T13:41:12;5.70;;;5.20;;
68947;SDS011;55996;49.546;7.400;2023-06-10T13:43:38;5.55;;;4.75;;
68947;SDS011;55996;49.546;7.400;2023-06-10T13:46:04;7.28;;;5.03;;
68947;SDS011;55996;49.546;7.400;2023-06-10T13:48:29;5.53;;;4.75;;
68947;SDS011;55996;49.546;7.400;2023-06-10T13:50:56;5.07;;;4.20;;
68947;SDS011;55996;49.546;7.400;2023-06-10T13:53:22;5.60;;;5.10;;
68947;SDS011;55996;49.546;7.400;2023-06-10T13:55:48;10.35;;;5.07;;
68947;SDS011;55996;49.546;7.400;2023-06-10T13:58:13;8.15;;;4.80;;
68947;SDS011;55996;49.546;7.400;2023-06-10T14:00:39;5.40;;;4.88;;
68947;SDS011;55996;49.546;7.400;2023-06-10T14:03:04;5.47;;;4.95;;
68947;SDS011;55996;49.546;7.400;2023-06-10T14:05:30;5.75;;;5.22;;
68947;SDS011;55996;49.546;7.400;2023-06-10T14:07:55;6.97;;;4.88;;
68947;SDS011;55996;49.546;7.400;2023-06-10T14:10:21;18.05;;;5.03;;
68947;SDS011;55996;49.546;7.400;2023-06-10T14:12:46;5.80;;;4.40;;
68947;SDS011;55996;49.546;7.400;2023-06-10T14:15:12;5.57;;;4.50;;
68947;SDS011;55996;49.546;7.400;2023-06-10T14:17:37;6.03;;;4.97;;
68947;SDS011;55996;49.546;7.400;2023-06-10T14:20:03;5.45;;;4.93;;
68947;SDS011;55996;49.546;7.400;2023-06-10T14:22:29;6.43;;;5.03;;
68947;SDS011;55996;49.546;7.400;2023-06-10T14:24:54;5.22;;;4.72;;
68947;SDS011;55996;49.546;7.400;2023-06-10T14:27:20;5.82;;;4.85;;
68947;SDS011;55996;49.546;7.400;2023-06-10T14:29:45;4.65;;;4.30;;
68947;SDS011;55996;49.546;7.400;2023-06-10T14:32:11;4.80;;;4.30;;
68947;SDS011;55996;49.546;7.400;2023-06-10T14:34:36;4.55;;;4.15;;
68947;SDS011;55996;49.546;7.400;2023-06-10T14:37:03;4.88;;;4.47;;
68947;SDS011;55996;49.546;7.400;2023-06-10T14:39:32;6.57;;;4.20;;
68947;SDS011;55996;49.546;7.400;2023-06-10T14:41:57;5.47;;;4.97;;
68947;SDS011;55996;49.546;7.400;2023-06-10T14:44:23;4.85;;;4.35;;
68947;SDS011;55996;49.546;7.400;2023-06-10T14:46:48;4.78;;;4.38;;
68947;SDS011;55996;49.546;7.400;2023-06-10T14:49:13;5.13;;;4.30;;
68947;SDS011;55996;49.546;7.400;2023-06-10T14:51:39;4.70;;;4.30;;
68947;SDS011;55996;49.546;7.400;2023-06-10T14:54:05;4.85;;;3.88;;
68947;SDS011;55996;49.546;7.400;2023-06-10T14:56:30;4.40;;;4.00;;
68947;SDS011;55996;49.546;7.400;2023-06-10T14:58:55;5.53;;;4.32;;
68947;SDS011;55996;49.546;7.400;2023-06-10T15:01:21;5.38;;;4.03;;